Aérodrome :
LOGIN :

S'inscrire | Disclaimer

   EN    FR    IT 

 










Légende :    VFR   VFR Marginal   IFR   IFR Intensif   IFR Très Intensif
Visi : 
Plafond : 
>= 8 km
>= 3000ft
5 à 8 km
1000 à 3000 ft
1500m à 5 km
500 à 1000 ft
800 à 1500m
200 à 500 ft
< 800m
< 200 ft
Symboles :   Orages  Brouillard  Fortes neiges  Fortes précipitations  Vent > 20 kt
SIGMETs :   Divers  Orages  Givrage  Turbulence  Onde Orograph.  Cendres Volcan.







- Altitude de l'aérodrome : 28 ft
- Code IATA : SOZ
- Voir les cartes d'approche


LFKS - Solenzara

DERNIER METAR :
  • 170900Z AUTO 04005KT 360V100 9999 -RA BKN011/// BKN016/// OVC032/// ///CB 19/18 Q1015

METARs EXPIRÉS :
  • 170830Z AUTO 34005KT 9999 -RA BKN013/// BKN027/// BKN039/// ///CB 19/17 Q1015
  • 170800Z AUTO 33005KT 9999 FEW015/// BKN028/// BKN038/// ///CB 18/17 Q1015
  • 170730Z AUTO 35006KT 9999 -RA BKN016/// BKN028/// BKN040/// ///CB 18/17 Q1015
  • 170700Z AUTO 34004KT 9999 BKN015/// BKN040/// BKN056/// ///CB 18/16 Q1015
  • 170630Z AUTO 34006KT 9999 OVC044/// ///CB 18/16 Q1015

TAF TAF LFKS
Valide du 17 à 09h jusqu'au 18 à 09h UTC


170800Z 1709/1809 30010KT 9999 SCT020CB SCT025 OVC035
TEMPO 1709/1717 SHRA
Pas de NOTAMs connus pour ce terrain.



MET'MAP, la Météo Aéronautique d'un coup d'oeil ! - Copyright ORBIFLY Décembre 2007 - Disclaimer

ORBIFLY MET'MAP TEAM :

Programmation & Développement : Alexandra Zaïnal
Conception & Développement : Baudouin d'Aumeries
Co-Programmation & Développement : Marc-Olivier Méhu
Soutien technique & logistique : Manuel Goepfert

Contact : metmap@orbifly.com




SOURCES & CREDITS :

   NOAA